Time;durP1;ratioP1;P1;durP2;ratioP2;P2;SDS_P1;SDS_P2;PMS_P1;PMS_P2;Temp;Humidity;BMP_temperature;BMP_pressure;BME280_temperature;BME280_humidity;BME280_pressure;Samples;Min_cycle;Max_cycle;Signal;HPM_P1;HPM_P2
2021/09/09 00:00:26;;;;;;;12.63;11.32;;;;;;;;;;2096987;28;20175;-66
2021/09/09 00:01:29;;;;;;;14.18;12.05;;;;;;;;;;2094821;28;20172;-65
2021/09/09 00:02:30;;;;;;;14.25;11.80;;;;;;;;;;2097380;28;20175;-62
2021/09/09 00:03:31;;;;;;;12.30;11.10;;;;;;;;;;2080725;28;20247;-66
2021/09/09 00:04:31;;;;;;;13.00;11.20;;;;;;;;;;2087921;28;20583;-64
2021/09/09 00:05:32;;;;;;;11.70;10.70;;;;;;;;;;2098116;28;20264;-59
2021/09/09 00:06:33;;;;;;;12.90;11.43;;;;;;;;;;2098277;28;20245;-63
2021/09/09 00:07:35;;;;;;;12.43;11.18;;;;;;;;;;2097821;28;20218;-66
2021/09/09 00:08:36;;;;;;;12.90;11.60;;;;;;;;;;2097234;28;20163;-64
2021/09/09 00:09:37;;;;;;;13.02;11.73;;;;;;;;;;2098057;28;20171;-64
2021/09/09 00:10:38;;;;;;;13.68;12.27;;;;;;;;;;2089015;28;20290;-63
2021/09/09 00:11:38;;;;;;;13.75;11.90;;;;;;;;;;2089108;28;20856;-63
2021/09/09 00:12:39;;;;;;;13.50;12.07;;;;;;;;;;2098198;28;20166;-65
2021/09/09 00:13:40;;;;;;;15.32;12.70;;;;;;;;;;2098289;28;20241;-62
2021/09/09 00:14:42;;;;;;;12.98;11.68;;;;;;;;;;2088916;28;20320;-62
2021/09/09 00:15:42;;;;;;;12.90;11.60;;;;;;;;;;2089126;28;20318;-63
2021/09/09 00:16:43;;;;;;;14.07;12.55;;;;;;;;;;2098299;28;20580;-64
2021/09/09 00:17:44;;;;;;;13.38;11.98;;;;;;;;;;2097993;28;20195;-62
2021/09/09 00:18:45;;;;;;;15.10;12.63;;;;;;;;;;2097609;28;20175;-63
2021/09/09 00:19:45;;;;;;;13.13;11.75;;;;;;;;;;2097824;28;20707;-62
2021/09/09 00:20:46;;;;;;;14.02;12.55;;;;;;;;;;2097138;28;20260;-62
2021/09/09 00:21:47;;;;;;;14.00;12.60;;;;;;;;;;2098119;28;20639;-59
2021/09/09 00:22:47;;;;;;;15.20;11.43;;;;;;;;;;2098103;28;20179;-63
2021/09/09 00:23:48;;;;;;;14.52;12.30;;;;;;;;;;2089680;28;20220;-63
2021/09/09 00:24:49;;;;;;;12.82;11.43;;;;;;;;;;2080352;28;20168;-65
2021/09/09 00:25:51;;;;;;;16.92;12.48;;;;;;;;;;2089106;28;20668;-63
2021/09/09 00:26:51;;;;;;;14.18;12.73;;;;;;;;;;2097987;28;20166;-62
2021/09/09 00:27:52;;;;;;;15.35;12.35;;;;;;;;;;2098077;28;20585;-65
2021/09/09 00:28:53;;;;;;;13.07;11.55;;;;;;;;;;2097905;28;20254;-63
2021/09/09 00:29:53;;;;;;;14.18;12.63;;;;;;;;;;2097873;28;20522;-62
2021/09/09 00:30:55;;;;;;;16.67;12.80;;;;;;;;;;2090395;28;20226;-62
2021/09/09 00:31:55;;;;;;;13.70;12.20;;;;;;;;;;2082805;28;20172;-62
2021/09/09 00:32:55;;;;;;;14.05;12.52;;;;;;;;;;2082380;28;20188;-62
2021/09/09 00:33:56;;;;;;;14.30;12.45;;;;;;;;;;2090041;28;20277;-62
2021/09/09 00:34:58;;;;;;;13.27;12.00;;;;;;;;;;2098674;28;20262;-64
2021/09/09 00:35:58;;;;;;;14.68;12.40;;;;;;;;;;2098877;28;20639;-64
2021/09/09 00:36:59;;;;;;;14.18;12.70;;;;;;;;;;2090371;28;20238;-65
2021/09/09 00:38:01;;;;;;;14.20;12.70;;;;;;;;;;2089735;28;20190;-64
2021/09/09 00:39:01;;;;;;;13.98;12.65;;;;;;;;;;2099148;28;20189;-62
2021/09/09 00:40:01;;;;;;;14.00;12.60;;;;;;;;;;2090564;28;20168;-63
2021/09/09 00:41:02;;;;;;;13.70;12.25;;;;;;;;;;2090822;28;20179;-61
2021/09/09 00:42:02;;;;;;;13.70;12.32;;;;;;;;;;2099902;28;20179;-61
2021/09/09 00:43:03;;;;;;;17.23;12.82;;;;;;;;;;2090671;28;20167;-63
2021/09/09 00:44:03;;;;;;;14.98;12.95;;;;;;;;;;2082608;28;20235;-63
2021/09/09 00:45:04;;;;;;;14.25;12.75;;;;;;;;;;2090752;28;20171;-64
2021/09/09 00:46:04;;;;;;;14.25;12.90;;;;;;;;;;2099854;28;20214;-62
2021/09/09 00:47:05;;;;;;;14.25;12.75;;;;;;;;;;2090723;28;20179;-63
2021/09/09 00:48:06;;;;;;;14.73;12.98;;;;;;;;;;2090554;28;20252;-64
2021/09/09 00:49:06;;;;;;;14.52;12.90;;;;;;;;;;2099778;28;20216;-63
2021/09/09 00:50:06;;;;;;;17.70;13.15;;;;;;;;;;2090586;28;20183;-62
2021/09/09 00:51:07;;;;;;;14.95;12.95;;;;;;;;;;2082692;28;20204;-60
2021/09/09 00:52:08;;;;;;;14.88;13.05;;;;;;;;;;2090488;28;20586;-62
2021/09/09 00:53:08;;;;;;;14.13;12.73;;;;;;;;;;2090903;28;20175;-61
2021/09/09 00:54:08;;;;;;;14.80;13.25;;;;;;;;;;2090750;28;20174;-63
2021/09/09 00:55:09;;;;;;;14.35;12.93;;;;;;;;;;2099614;28;20238;-60
2021/09/09 00:56:09;;;;;;;15.10;13.52;;;;;;;;;;2099665;28;20248;-63
2021/09/09 00:57:10;;;;;;;14.27;12.88;;;;;;;;;;2100046;28;20577;-62
2021/09/09 00:58:10;;;;;;;16.15;13.10;;;;;;;;;;2083036;28;20180;-63
2021/09/09 00:59:10;;;;;;;15.23;13.15;;;;;;;;;;2083634;28;20208;-59
2021/09/09 01:00:11;;;;;;;14.65;13.15;;;;;;;;;;2100245;28;20166;-63
2021/09/09 01:01:12;;;;;;;15.55;13.57;;;;;;;;;;2100784;28;20274;-62
2021/09/09 01:02:12;;;;;;;14.60;13.07;;;;;;;;;;2101204;28;20174;-62
2021/09/09 01:03:12;;;;;;;17.65;13.32;;;;;;;;;;2101290;28;20167;-61
2021/09/09 01:04:13;;;;;;;14.63;13.02;;;;;;;;;;2091887;28;20184;-64
2021/09/09 01:05:13;;;;;;;14.15;12.65;;;;;;;;;;2083655;28;20202;-61
2021/09/09 01:06:13;;;;;;;14.10;12.73;;;;;;;;;;2097068;28;20167;-63
2021/09/09 01:07:14;;;;;;;15.25;13.40;;;;;;;;;;2099636;28;20727;-61
2021/09/09 01:08:14;;;;;;;16.10;14.40;;;;;;;;;;2099676;28;20563;-63
2021/09/09 01:09:15;;;;;;;15.15;13.52;;;;;;;;;;2099473;28;20753;-65
2021/09/09 01:10:15;;;;;;;15.38;13.77;;;;;;;;;;2099325;28;20181;-72
2021/09/09 01:11:15;;;;;;;18.55;15.00;;;;;;;;;;2099628;28;20851;-66
2021/09/09 01:12:16;;;;;;;15.70;13.93;;;;;;;;;;2100348;28;20175;-66
2021/09/09 01:13:16;;;;;;;15.48;13.98;;;;;;;;;;2091406;28;20187;-66
2021/09/09 01:14:17;;;;;;;15.40;13.88;;;;;;;;;;2091946;28;20255;-62
2021/09/09 01:15:17;;;;;;;15.55;13.98;;;;;;;;;;2099148;28;20726;-64
2021/09/09 01:16:18;;;;;;;15.50;13.90;;;;;;;;;;2090138;28;20624;-62
2021/09/09 01:17:18;;;;;;;15.98;14.27;;;;;;;;;;2089605;28;20174;-61
2021/09/09 01:18:18;;;;;;;16.60;14.38;;;;;;;;;;2098772;28;20214;-65
2021/09/09 01:19:19;;;;;;;17.90;14.70;;;;;;;;;;2099688;28;20179;-64
2021/09/09 01:20:19;;;;;;;16.77;13.82;;;;;;;;;;2100174;28;20298;-63
2021/09/09 01:21:19;;;;;;;16.42;14.70;;;;;;;;;;2098960;28;20249;-65
2021/09/09 01:22:19;;;;;;;16.83;14.82;;;;;;;;;;2100102;28;20193;-64
2021/09/09 01:23:20;;;;;;;16.45;14.70;;;;;;;;;;2090936;28;20235;-63
2021/09/09 01:24:21;;;;;;;16.45;14.68;;;;;;;;;;2091217;28;20259;-61
2021/09/09 01:25:22;;;;;;;17.95;14.98;;;;;;;;;;2100080;28;20177;-63
2021/09/09 01:26:23;;;;;;;16.08;14.50;;;;;;;;;;2099498;28;20163;-63
2021/09/09 01:27:23;;;;;;;15.82;14.20;;;;;;;;;;2098114;28;20215;-63
2021/09/09 01:28:23;;;;;;;16.73;14.75;;;;;;;;;;2098220;28;20175;-65
2021/09/09 01:29:26;;;;;;;18.27;15.00;;;;;;;;;;2099538;28;20198;-65
2021/09/09 01:30:26;;;;;;;16.83;14.02;;;;;;;;;;2099730;28;20711;-62
2021/09/09 01:31:26;;;;;;;17.33;15.38;;;;;;;;;;2099987;28;20220;-64
2021/09/09 01:32:27;;;;;;;16.00;13.93;;;;;;;;;;2099319;28;20175;-59
2021/09/09 01:33:27;;;;;;;19.50;15.32;;;;;;;;;;2099953;28;20195;-56
2021/09/09 01:34:27;;;;;;;16.55;14.73;;;;;;;;;;2092464;28;20202;-62
2021/09/09 01:35:28;;;;;;;17.30;14.75;;;;;;;;;;2099623;28;20639;-62
2021/09/09 01:36:28;;;;;;;17.75;15.85;;;;;;;;;;2098878;28;20209;-65
2021/09/09 01:37:28;;;;;;;18.23;14.98;;;;;;;;;;2098738;28;20190;-66
2021/09/09 01:38:28;;;;;;;16.60;14.80;;;;;;;;;;2089607;28;20182;-63
2021/09/09 01:39:29;;;;;;;18.20;15.15;;;;;;;;;;2091397;28;20174;-68
2021/09/09 01:40:30;;;;;;;19.15;15.25;;;;;;;;;;2091826;28;20651;-61
2021/09/09 01:41:30;;;;;;;17.50;14.48;;;;;;;;;;2090077;28;20664;-61
2021/09/09 01:42:30;;;;;;;18.52;15.75;;;;;;;;;;2091625;28;20191;-62
2021/09/09 01:43:31;;;;;;;17.35;15.63;;;;;;;;;;2091555;28;20174;-63
2021/09/09 01:44:31;;;;;;;17.30;15.48;;;;;;;;;;2092339;28;20202;-65
2021/09/09 01:45:31;;;;;;;17.75;15.48;;;;;;;;;;2101205;28;20256;-63
2021/09/09 01:46:32;;;;;;;19.98;16.63;;;;;;;;;;2092087;28;20217;-62
2021/09/09 01:47:32;;;;;;;17.13;15.40;;;;;;;;;;2091402;28;20210;-61
2021/09/09 01:48:33;;;;;;;18.58;15.10;;;;;;;;;;2099353;28;20163;-66
2021/09/09 01:49:33;;;;;;;18.42;15.63;;;;;;;;;;2099902;28;20210;-68
2021/09/09 01:50:34;;;;;;;18.00;16.10;;;;;;;;;;2099971;28;20171;-64
2021/09/09 01:51:34;;;;;;;18.83;16.92;;;;;;;;;;2093420;28;20233;-65
2021/09/09 01:52:34;;;;;;;18.13;16.23;;;;;;;;;;2099457;28;20213;-63
2021/09/09 01:53:34;;;;;;;19.17;17.08;;;;;;;;;;2098272;28;20266;-61
2021/09/09 01:54:35;;;;;;;19.35;17.40;;;;;;;;;;2092897;28;20174;-62
2021/09/09 01:55:35;;;;;;;18.35;16.55;;;;;;;;;;2099783;28;20179;-62
2021/09/09 01:56:35;;;;;;;19.00;17.00;;;;;;;;;;2099430;28;20186;-67
2021/09/09 01:57:35;;;;;;;20.55;18.15;;;;;;;;;;2099265;28;20579;-62
2021/09/09 01:58:36;;;;;;;21.27;18.08;;;;;;;;;;2089199;28;20176;-62
2021/09/09 01:59:36;;;;;;;18.85;16.88;;;;;;;;;;2089584;28;20177;-60
2021/09/09 02:00:36;;;;;;;18.15;16.25;;;;;;;;;;2090007;28;20187;-61
2021/09/09 02:01:38;;;;;;;18.98;16.70;;;;;;;;;;2090412;28;20164;-62
2021/09/09 02:02:39;;;;;;;19.30;17.27;;;;;;;;;;2098685;28;20159;-65
2021/09/09 02:03:39;;;;;;;23.02;18.48;;;;;;;;;;2098985;28;20339;-60
2021/09/09 02:04:39;;;;;;;19.50;17.42;;;;;;;;;;2098570;28;20159;-61
2021/09/09 02:05:39;;;;;;;21.10;17.02;;;;;;;;;;2099116;28;20167;-60
2021/09/09 02:06:40;;;;;;;18.45;16.45;;;;;;;;;;2098157;28;20171;-59
2021/09/09 02:07:40;;;;;;;20.45;17.38;;;;;;;;;;2089552;28;20191;-65
2021/09/09 02:08:40;;;;;;;23.17;17.45;;;;;;;;;;2089580;28;20170;-63
2021/09/09 02:09:41;;;;;;;19.70;17.73;;;;;;;;;;2089549;28;20782;-61
2021/09/09 02:10:41;;;;;;;19.02;17.13;;;;;;;;;;2089159;28;20227;-62
2021/09/09 02:11:41;;;;;;;19.40;17.52;;;;;;;;;;2098285;28;20549;-62
2021/09/09 02:12:41;;;;;;;19.95;17.80;;;;;;;;;;2089861;28;20249;-62
2021/09/09 02:13:42;;;;;;;19.88;17.77;;;;;;;;;;2090014;28;20179;-60
2021/09/09 02:14:42;;;;;;;21.92;18.15;;;;;;;;;;2097592;28;20183;-62
2021/09/09 02:15:42;;;;;;;19.83;17.67;;;;;;;;;;2098516;28;20170;-66
2021/09/09 02:16:43;;;;;;;20.65;18.55;;;;;;;;;;2098711;28;20539;-60
2021/09/09 02:17:43;;;;;;;20.10;17.63;;;;;;;;;;2098401;28;20237;-61
2021/09/09 02:18:43;;;;;;;19.52;17.58;;;;;;;;;;2098468;28;20520;-61
2021/09/09 02:19:43;;;;;;;20.65;18.55;;;;;;;;;;2098939;28;20217;-62
2021/09/09 02:20:44;;;;;;;23.02;18.33;;;;;;;;;;2098775;28;20262;-60
2021/09/09 02:21:44;;;;;;;18.50;16.60;;;;;;;;;;2097165;28;20548;-62
2021/09/09 02:22:45;;;;;;;22.80;19.42;;;;;;;;;;2098739;28;20604;-60
2021/09/09 02:23:45;;;;;;;22.58;19.65;;;;;;;;;;2098606;28;20186;-65
2021/09/09 02:24:45;;;;;;;19.65;17.55;;;;;;;;;;2089883;28;20174;-64
2021/09/09 02:25:45;;;;;;;20.85;18.15;;;;;;;;;;2089273;28;20187;-63
2021/09/09 02:26:46;;;;;;;21.60;19.23;;;;;;;;;;2089158;28;20251;-62
2021/09/09 02:27:46;;;;;;;20.60;18.40;;;;;;;;;;2098426;28;20203;-62
2021/09/09 02:28:47;;;;;;;23.33;18.88;;;;;;;;;;2097422;28;20198;-63
2021/09/09 02:29:47;;;;;;;19.40;17.35;;;;;;;;;;2098186;28;20654;-60
2021/09/09 02:30:47;;;;;;;22.95;18.65;;;;;;;;;;2098720;28;20549;-60
2021/09/09 02:31:47;;;;;;;20.70;18.60;;;;;;;;;;2098598;28;20280;-63
2021/09/09 02:32:48;;;;;;;21.15;18.50;;;;;;;;;;2098759;28;20167;-64
2021/09/09 02:33:48;;;;;;;23.17;18.85;;;;;;;;;;2096318;28;20175;-62
2021/09/09 02:34:48;;;;;;;20.95;18.73;;;;;;;;;;2084069;28;20175;-62
2021/09/09 02:35:48;;;;;;;21.27;18.05;;;;;;;;;;2081079;28;20191;-61
2021/09/09 02:36:49;;;;;;;22.45;19.33;;;;;;;;;;2083993;28;20163;-59
2021/09/09 02:37:49;;;;;;;20.45;18.30;;;;;;;;;;2098211;28;20223;-63
2021/09/09 02:38:49;;;;;;;20.83;18.48;;;;;;;;;;2098242;28;20171;-62
2021/09/09 02:39:49;;;;;;;22.10;18.90;;;;;;;;;;2097938;28;20167;-65
2021/09/09 02:40:50;;;;;;;23.48;19.20;;;;;;;;;;2097783;28;20662;-62
2021/09/09 02:41:50;;;;;;;21.88;19.58;;;;;;;;;;2098464;28;20590;-64
2021/09/09 02:42:50;;;;;;;21.35;18.92;;;;;;;;;;2089782;28;20270;-64
2021/09/09 02:43:50;;;;;;;20.75;18.48;;;;;;;;;;2088819;28;20190;-63
2021/09/09 02:44:51;;;;;;;21.33;19.13;;;;;;;;;;2098361;28;20198;-64
2021/09/09 02:45:51;;;;;;;21.92;19.55;;;;;;;;;;2098870;28;20643;-62
2021/09/09 02:46:51;;;;;;;24.48;19.25;;;;;;;;;;2098985;28;20225;-60
2021/09/09 02:47:52;;;;;;;21.13;18.70;;;;;;;;;;2098496;28;20203;-64
2021/09/09 02:48:52;;;;;;;23.55;20.75;;;;;;;;;;2097896;28;20611;-62
2021/09/09 02:49:52;;;;;;;21.13;18.58;;;;;;;;;;2098424;28;20585;-61
2021/09/09 02:50:52;;;;;;;22.55;19.20;;;;;;;;;;2098623;28;20199;-59
2021/09/09 02:51:53;;;;;;;23.48;20.02;;;;;;;;;;2098075;28;20175;-64
2021/09/09 02:52:53;;;;;;;21.45;19.20;;;;;;;;;;2097560;28;20167;-64
2021/09/09 02:53:53;;;;;;;19.88;17.85;;;;;;;;;;2093984;28;20662;-63
2021/09/09 02:54:53;;;;;;;23.20;19.90;;;;;;;;;;2081481;28;20188;-57
2021/09/09 02:55:53;;;;;;;21.48;19.30;;;;;;;;;;2080808;28;20196;-60
2021/09/09 02:56:54;;;;;;;21.58;18.83;;;;;;;;;;2085608;28;20176;-61
2021/09/09 02:57:54;;;;;;;23.33;20.83;;;;;;;;;;2085953;28;20188;-57
2021/09/09 02:58:57;;;;;;;23.35;20.05;;;;;;;;;;2081417;28;20322;-60
2021/09/09 02:59:57;;;;;;;23.67;20.25;;;;;;;;;;2089492;28;20190;-60
2021/09/09 03:00:58;;;;;;;24.20;20.95;;;;;;;;;;2098469;28;20225;-60
2021/09/09 03:01:58;;;;;;;21.58;19.27;;;;;;;;;;2097277;28;20214;-60
2021/09/09 03:02:58;;;;;;;22.65;20.23;;;;;;;;;;2097778;28;20252;-62
2021/09/09 03:03:59;;;;;;;22.33;19.75;;;;;;;;;;2097667;28;20250;-59
2021/09/09 03:04:59;;;;;;;22.85;20.42;;;;;;;;;;2098043;28;20190;-61
2021/09/09 03:05:59;;;;;;;24.92;21.02;;;;;;;;;;2089428;28;20179;-61
2021/09/09 03:06:59;;;;;;;23.73;21.23;;;;;;;;;;2089560;28;20187;-59
2021/09/09 03:07:59;;;;;;;24.00;20.80;;;;;;;;;;2097829;28;20191;-61
2021/09/09 03:09:00;;;;;;;22.48;20.23;;;;;;;;;;2098170;28;20185;-65
2021/09/09 03:10:00;;;;;;;22.27;19.90;;;;;;;;;;2089098;28;20186;-62
2021/09/09 03:11:01;;;;;;;24.85;21.23;;;;;;;;;;2089053;28;20207;-64
2021/09/09 03:12:02;;;;;;;23.20;20.42;;;;;;;;;;2092639;28;20163;-60
2021/09/09 03:13:02;;;;;;;23.85;21.30;;;;;;;;;;2090641;28;20362;-64
2021/09/09 03:14:02;;;;;;;24.25;21.17;;;;;;;;;;2081171;28;20173;-65
2021/09/09 03:15:03;;;;;;;23.85;20.75;;;;;;;;;;2088769;28;20175;-62
2021/09/09 03:16:03;;;;;;;27.00;21.80;;;;;;;;;;2091053;28;20167;-64
2021/09/09 03:17:04;;;;;;;23.10;20.67;;;;;;;;;;2082246;28;20180;-62
2021/09/09 03:18:04;;;;;;;23.63;20.85;;;;;;;;;;2093532;23;20314;-55
2021/09/09 03:19:04;;;;;;;23.00;20.33;;;;;;;;;;2078523;28;20200;-54
2021/09/09 03:20:05;;;;;;;25.88;22.27;;;;;;;;;;2089867;28;20175;-54
2021/09/09 03:21:05;;;;;;;25.13;21.13;;;;;;;;;;2090401;28;20178;-54
2021/09/09 03:22:05;;;;;;;27.05;22.45;;;;;;;;;;2089267;28;20172;-56
2021/09/09 03:23:06;;;;;;;22.90;20.40;;;;;;;;;;2089468;28;20207;-54
2021/09/09 03:24:06;;;;;;;23.73;21.05;;;;;;;;;;2088054;28;20164;-51
2021/09/09 03:25:07;;;;;;;22.52;20.10;;;;;;;;;;2090551;28;20183;-49
2021/09/09 03:26:07;;;;;;;22.95;20.55;;;;;;;;;;2081041;28;20208;-54
2021/09/09 03:27:07;;;;;;;23.55;20.27;;;;;;;;;;2080825;28;20251;-52
2021/09/09 03:28:07;;;;;;;23.25;20.67;;;;;;;;;;2089227;28;20234;-51
2021/09/09 03:29:08;;;;;;;24.17;21.48;;;;;;;;;;2089397;28;20191;-51
2021/09/09 03:30:08;;;;;;;23.42;20.27;;;;;;;;;;2089159;28;20190;-51
2021/09/09 03:31:09;;;;;;;24.80;21.92;;;;;;;;;;2090603;28;20203;-52
2021/09/09 03:32:09;;;;;;;24.67;21.65;;;;;;;;;;2090918;28;20171;-54
2021/09/09 03:33:09;;;;;;;27.15;22.88;;;;;;;;;;2089522;28;20176;-54
2021/09/09 03:34:09;;;;;;;25.05;22.45;;;;;;;;;;2085332;28;20621;-57
2021/09/09 03:35:10;;;;;;;23.77;21.20;;;;;;;;;;2089192;28;20191;-54
2021/09/09 03:36:10;;;;;;;28.65;22.13;;;;;;;;;;2079803;28;20304;-54
2021/09/09 03:37:10;;;;;;;25.60;21.55;;;;;;;;;;2080703;28;20615;-51
2021/09/09 03:38:10;;;;;;;26.20;22.45;;;;;;;;;;2088501;28;20190;-52
2021/09/09 03:39:11;;;;;;;26.90;22.17;;;;;;;;;;2089068;28;20781;-50
2021/09/09 03:40:11;;;;;;;27.27;23.17;;;;;;;;;;2089102;28;20203;-50
2021/09/09 03:41:11;;;;;;;24.83;22.27;;;;;;;;;;2089088;28;20190;-53
2021/09/09 03:42:12;;;;;;;22.70;20.30;;;;;;;;;;2089119;28;20171;-55
2021/09/09 03:43:12;;;;;;;24.90;22.02;;;;;;;;;;2089623;28;20551;-54
2021/09/09 03:44:13;;;;;;;23.02;20.52;;;;;;;;;;2085127;28;20547;-52
2021/09/09 03:45:13;;;;;;;27.90;23.60;;;;;;;;;;2087077;28;20172;-53
2021/09/09 03:46:14;;;;;;;24.88;21.70;;;;;;;;;;2080938;28;20185;-54
2021/09/09 03:47:14;;;;;;;26.02;23.15;;;;;;;;;;2080304;28;20168;-56
2021/09/09 03:48:14;;;;;;;30.05;23.40;;;;;;;;;;2088694;28;20223;-55
2021/09/09 03:49:15;;;;;;;25.05;22.27;;;;;;;;;;2080068;28;20184;-53
2021/09/09 03:50:15;;;;;;;25.38;22.63;;;;;;;;;;2080616;28;20247;-50
2021/09/09 03:51:15;;;;;;;26.48;22.63;;;;;;;;;;2089534;28;20567;-51
2021/09/09 03:52:15;;;;;;;26.83;23.90;;;;;;;;;;2089246;28;20614;-54
2021/09/09 03:53:16;;;;;;;28.55;23.05;;;;;;;;;;2080503;28;20176;-53
2021/09/09 03:54:16;;;;;;;27.40;23.33;;;;;;;;;;2080334;28;20646;-53
2021/09/09 03:55:16;;;;;;;24.75;22.15;;;;;;;;;;2080615;28;20168;-55
2021/09/09 03:56:17;;;;;;;26.50;22.75;;;;;;;;;;2080610;28;20168;-57
2021/09/09 03:57:17;;;;;;;30.58;23.65;;;;;;;;;;2088805;28;20631;-55
2021/09/09 03:58:17;;;;;;;25.08;22.35;;;;;;;;;;2088337;28;20183;-54
2021/09/09 03:59:17;;;;;;;25.85;23.08;;;;;;;;;;2089404;28;20182;-54
2021/09/09 04:00:18;;;;;;;25.45;22.73;;;;;;;;;;2089306;28;20175;-55
2021/09/09 04:01:18;;;;;;;28.17;24.02;;;;;;;;;;2089422;28;20186;-52
2021/09/09 04:02:19;;;;;;;26.77;23.85;;;;;;;;;;2089652;28;20210;-51
2021/09/09 04:03:19;;;;;;;26.50;23.60;;;;;;;;;;2089681;28;20198;-57
2021/09/09 04:04:19;;;;;;;25.38;22.67;;;;;;;;;;2089180;28;20164;-56
2021/09/09 04:05:20;;;;;;;25.10;21.85;;;;;;;;;;2089065;28;20184;-54
2021/09/09 04:06:21;;;;;;;32.03;25.13;;;;;;;;;;2088904;28;20636;-58
2021/09/09 04:07:22;;;;;;;25.73;22.70;;;;;;;;;;2089724;28;20186;-53
2021/09/09 04:08:22;;;;;;;28.70;23.25;;;;;;;;;;2089240;28;20198;-51
2021/09/09 04:09:22;;;;;;;25.77;23.00;;;;;;;;;;2090347;28;20254;-51
2021/09/09 04:10:23;;;;;;;27.42;22.60;;;;;;;;;;2089649;28;20871;-52
2021/09/09 04:11:23;;;;;;;28.23;23.27;;;;;;;;;;2089905;28;20199;-59
2021/09/09 04:12:24;;;;;;;28.00;24.10;;;;;;;;;;2089722;28;20207;-54
2021/09/09 04:13:24;;;;;;;27.88;24.75;;;;;;;;;;2090057;28;20246;-52
2021/09/09 04:14:24;;;;;;;28.58;24.23;;;;;;;;;;2089641;28;20824;-56
2021/09/09 04:15:25;;;;;;;28.25;23.55;;;;;;;;;;2089068;28;20191;-51
2021/09/09 04:16:25;;;;;;;26.80;23.10;;;;;;;;;;2088253;28;20679;-52
2021/09/09 04:17:25;;;;;;;30.35;23.80;;;;;;;;;;2080286;28;20673;-52
2021/09/09 04:18:25;;;;;;;24.83;22.17;;;;;;;;;;2080454;28;20311;-53
2021/09/09 04:19:26;;;;;;;31.35;24.98;;;;;;;;;;2089832;28;20174;-52
2021/09/09 04:20:26;;;;;;;28.10;24.10;;;;;;;;;;2088618;28;20167;-56
2021/09/09 04:21:26;;;;;;;27.30;24.45;;;;;;;;;;2081032;28;20198;-57
2021/09/09 04:22:27;;;;;;;27.20;23.20;;;;;;;;;;2073759;28;20219;-58
2021/09/09 04:23:27;;;;;;;29.77;24.08;;;;;;;;;;2081726;28;20168;-57
2021/09/09 04:24:27;;;;;;;29.73;24.02;;;;;;;;;;2091202;28;20180;-55
2021/09/09 04:25:27;;;;;;;28.85;24.30;;;;;;;;;;2089274;28;20182;-54
2021/09/09 04:26:28;;;;;;;26.98;24.02;;;;;;;;;;2088851;28;20175;-54
2021/09/09 04:27:30;;;;;;;31.60;24.50;;;;;;;;;;2089511;28;20223;-51
2021/09/09 04:28:31;;;;;;;28.20;24.73;;;;;;;;;;2089391;28;20191;-57
2021/09/09 04:29:31;;;;;;;28.58;23.23;;;;;;;;;;2080710;28;20215;-55
2021/09/09 04:30:31;;;;;;;32.00;24.90;;;;;;;;;;2079552;28;20174;-54
2021/09/09 04:31:31;;;;;;;32.22;25.88;;;;;;;;;;2088660;28;20178;-50
2021/09/09 04:32:32;;;;;;;31.30;26.33;;;;;;;;;;2089528;28;20222;-50
2021/09/09 04:33:32;;;;;;;28.80;24.00;;;;;;;;;;2080869;28;20708;-50
2021/09/09 04:34:32;;;;;;;30.13;24.85;;;;;;;;;;2073526;28;20181;-52
2021/09/09 04:35:33;;;;;;;28.00;25.00;;;;;;;;;;2088746;28;20164;-50
2021/09/09 04:36:33;;;;;;;28.15;24.92;;;;;;;;;;2085640;28;20183;-55
2021/09/09 04:37:34;;;;;;;33.00;26.10;;;;;;;;;;2089217;28;20196;-54
2021/09/09 04:38:34;;;;;;;29.52;25.80;;;;;;;;;;2089447;28;20187;-50
2021/09/09 04:39:35;;;;;;;30.60;26.38;;;;;;;;;;2089305;28;20254;-50
2021/09/09 04:40:35;;;;;;;33.83;25.35;;;;;;;;;;2088946;28;20187;-54
2021/09/09 04:41:37;;;;;;;29.77;26.52;;;;;;;;;;2089008;28;20227;-59
2021/09/09 04:42:37;;;;;;;31.75;26.67;;;;;;;;;;2081201;28;20184;-55
2021/09/09 04:43:38;;;;;;;34.65;27.17;;;;;;;;;;2080455;28;20234;-56
2021/09/09 04:44:38;;;;;;;29.05;24.48;;;;;;;;;;2082372;28;20230;-55
2021/09/09 04:45:38;;;;;;;30.35;25.63;;;;;;;;;;2089358;28;20259;-53
2021/09/09 04:46:38;;;;;;;33.88;26.33;;;;;;;;;;2089396;28;20168;-52
2021/09/09 04:47:39;;;;;;;30.10;25.02;;;;;;;;;;2089317;28;20182;-53
2021/09/09 04:48:39;;;;;;;32.53;27.15;;;;;;;;;;2088241;28;20192;-54
2021/09/09 04:49:39;;;;;;;27.77;24.88;;;;;;;;;;2089097;28;20652;-52
2021/09/09 04:50:40;;;;;;;28.75;25.60;;;;;;;;;;2089160;28;20262;-52
2021/09/09 04:51:40;;;;;;;30.30;24.77;;;;;;;;;;2089326;28;20178;-55
2021/09/09 04:52:40;;;;;;;29.70;24.40;;;;;;;;;;2090917;28;20180;-54
2021/09/09 04:53:41;;;;;;;26.73;23.85;;;;;;;;;;2090469;28;20644;-53
2021/09/09 04:54:41;;;;;;;27.23;24.02;;;;;;;;;;2090021;28;20545;-51
2021/09/09 04:55:41;;;;;;;32.25;24.15;;;;;;;;;;2080538;28;20197;-52
2021/09/09 04:56:41;;;;;;;29.20;25.17;;;;;;;;;;2079811;28;20168;-53
2021/09/09 04:57:42;;;;;;;27.00;23.98;;;;;;;;;;2080161;28;20180;-51
2021/09/09 04:58:42;;;;;;;27.40;24.33;;;;;;;;;;2079990;28;20216;-51
2021/09/09 04:59:42;;;;;;;27.85;24.85;;;;;;;;;;2088358;28;20207;-51
2021/09/09 05:00:42;;;;;;;27.73;24.45;;;;;;;;;;2088034;28;20180;-54
2021/09/09 05:01:43;;;;;;;29.08;24.95;;;;;;;;;;2089329;28;20202;-54
2021/09/09 05:02:43;;;;;;;38.72;34.40;;;;;;;;;;2087104;28;20175;-52
2021/09/09 05:03:43;;;;;;;32.10;28.17;;;;;;;;;;2088859;28;20179;-53
2021/09/09 05:04:43;;;;;;;34.95;31.13;;;;;;;;;;2087348;28;20221;-52
2021/09/09 05:05:44;;;;;;;37.80;28.35;;;;;;;;;;2086229;28;20183;-52
2021/09/09 05:06:44;;;;;;;32.08;27.48;;;;;;;;;;2085711;28;20602;-51
2021/09/09 05:07:44;;;;;;;30.30;25.42;;;;;;;;;;2086468;28;20179;-52
2021/09/09 05:08:44;;;;;;;30.33;25.42;;;;;;;;;;2081394;28;20228;-51
2021/09/09 05:09:45;;;;;;;30.92;27.58;;;;;;;;;;2086890;28;20169;-52
2021/09/09 05:10:45;;;;;;;31.13;27.35;;;;;;;;;;2083040;28;20203;-55
2021/09/09 05:11:45;;;;;;;30.90;25.77;;;;;;;;;;2079761;28;20176;-54
2021/09/09 05:12:45;;;;;;;33.05;28.73;;;;;;;;;;2085463;28;20653;-51
2021/09/09 05:13:46;;;;;;;28.88;25.58;;;;;;;;;;2077524;28;20661;-51
2021/09/09 05:14:46;;;;;;;32.88;29.23;;;;;;;;;;2079259;28;20649;-53
2021/09/09 05:15:46;;;;;;;32.38;26.83;;;;;;;;;;2077095;28;20313;-55
2021/09/09 05:16:46;;;;;;;28.77;25.67;;;;;;;;;;2077394;28;20224;-51
2021/09/09 05:17:47;;;;;;;30.85;26.48;;;;;;;;;;2088064;28;20282;-52
2021/09/09 05:18:47;;;;;;;32.20;26.67;;;;;;;;;;2090154;28;20248;-53
2021/09/09 05:19:47;;;;;;;28.70;25.38;;;;;;;;;;2082040;28;20712;-53
2021/09/09 05:20:48;;;;;;;33.25;28.25;;;;;;;;;;2081160;28;20190;-55
2021/09/09 05:21:48;;;;;;;34.40;28.60;;;;;;;;;;2080743;28;20322;-55
2021/09/09 05:22:48;;;;;;;33.63;30.05;;;;;;;;;;2090790;28;20176;-51
2021/09/09 05:23:48;;;;;;;33.67;28.13;;;;;;;;;;2090241;28;20693;-53
2021/09/09 05:24:49;;;;;;;30.02;25.92;;;;;;;;;;2081045;28;20255;-54
2021/09/09 05:25:49;;;;;;;28.65;24.95;;;;;;;;;;2081263;28;20206;-51
2021/09/09 05:26:49;;;;;;;26.52;23.73;;;;;;;;;;2091937;28;20656;-54
2021/09/09 05:27:49;;;;;;;34.25;27.42;;;;;;;;;;2093686;28;20190;-51
2021/09/09 05:28:50;;;;;;;29.98;24.85;;;;;;;;;;2093072;28;20201;-51
2021/09/09 05:29:50;;;;;;;28.50;25.60;;;;;;;;;;2084392;28;20184;-54
2021/09/09 05:30:50;;;;;;;27.05;23.42;;;;;;;;;;2073347;28;20209;-54
2021/09/09 05:31:50;;;;;;;27.98;24.98;;;;;;;;;;2081427;28;20183;-55
2021/09/09 05:32:51;;;;;;;30.17;25.15;;;;;;;;;;2090328;28;20172;-54
2021/09/09 05:33:51;;;;;;;27.85;23.60;;;;;;;;;;2079542;28;20173;-53
2021/09/09 05:34:51;;;;;;;28.90;23.88;;;;;;;;;;2076426;28;20607;-52
2021/09/09 05:35:52;;;;;;;25.80;22.98;;;;;;;;;;2089524;28;20182;-50
2021/09/09 05:36:52;;;;;;;27.92;24.08;;;;;;;;;;2089997;28;20528;-51
2021/09/09 05:37:52;;;;;;;28.77;25.58;;;;;;;;;;2088910;28;20174;-58
2021/09/09 05:38:52;;;;;;;25.27;22.15;;;;;;;;;;2084500;28;20664;-51
2021/09/09 05:39:53;;;;;;;27.42;24.48;;;;;;;;;;2080774;28;20195;-51
2021/09/09 05:40:53;;;;;;;27.35;23.58;;;;;;;;;;2081463;28;20279;-54
2021/09/09 05:41:53;;;;;;;29.65;24.92;;;;;;;;;;2089852;28;20238;-54
2021/09/09 05:42:53;;;;;;;30.38;25.02;;;;;;;;;;2086954;28;20247;-53
2021/09/09 05:43:54;;;;;;;26.20;22.58;;;;;;;;;;2089402;28;20821;-54
2021/09/09 05:44:54;;;;;;;24.45;21.83;;;;;;;;;;2087185;28;20230;-51
2021/09/09 05:45:54;;;;;;;28.92;23.20;;;;;;;;;;2086929;28;20172;-50
2021/09/09 05:46:54;;;;;;;26.52;23.67;;;;;;;;;;2086980;28;20179;-56
2021/09/09 05:47:55;;;;;;;26.85;23.02;;;;;;;;;;2085984;28;20560;-52
2021/09/09 05:48:55;;;;;;;25.42;22.65;;;;;;;;;;2085126;28;20178;-55
2021/09/09 05:49:55;;;;;;;27.85;23.42;;;;;;;;;;2089533;28;20179;-54
2021/09/09 05:50:55;;;;;;;28.23;22.92;;;;;;;;;;2090567;28;20559;-53